sensor_id;sensor_type;location;lat;lon;timestamp;P1;durP1;ratioP1;P2;durP2;ratioP2
15047;SDS011;7621;52.350;13.308;2023-03-01T05:19:54;0.50;;;0.50;;
15047;SDS011;7621;52.350;13.308;2023-03-01T05:22:20;0.60;;;0.60;;
15047;SDS011;7621;52.350;13.308;2023-03-01T05:24:46;0.50;;;0.50;;
15047;SDS011;7621;52.350;13.308;2023-03-01T05:27:11;0.60;;;0.60;;
15047;SDS011;7621;52.350;13.308;2023-03-01T05:29:37;0.50;;;0.50;;
15047;SDS011;7621;52.350;13.308;2023-03-01T05:32:04;0.50;;;0.50;;
15047;SDS011;7621;52.350;13.308;2023-03-01T05:34:31;0.50;;;0.50;;
15047;SDS011;7621;52.350;13.308;2023-03-01T05:36:58;0.50;;;0.50;;
15047;SDS011;7621;52.350;13.308;2023-03-01T05:39:25;0.50;;;0.50;;
15047;SDS011;7621;52.350;13.308;2023-03-01T05:41:55;0.50;;;0.50;;
15047;SDS011;7621;52.350;13.308;2023-03-01T05:44:22;0.53;;;0.53;;
15047;SDS011;7621;52.350;13.308;2023-03-01T05:46:48;0.50;;;0.50;;
15047;SDS011;7621;52.350;13.308;2023-03-01T05:49:15;0.40;;;0.40;;
15047;SDS011;7621;52.350;13.308;2023-03-01T05:51:41;0.40;;;0.40;;
15047;SDS011;7621;52.350;13.308;2023-03-01T05:54:08;0.40;;;0.40;;
15047;SDS011;7621;52.350;13.308;2023-03-01T05:56:35;0.60;;;0.60;;
15047;SDS011;7621;52.350;13.308;2023-03-01T05:59:03;0.60;;;0.60;;
15047;SDS011;7621;52.350;13.308;2023-03-01T06:01:30;0.50;;;0.50;;
15047;SDS011;7621;52.350;13.308;2023-03-01T06:03:56;0.50;;;0.50;;
15047;SDS011;7621;52.350;13.308;2023-03-01T06:06:22;0.50;;;0.50;;
15047;SDS011;7621;52.350;13.308;2023-03-01T06:08:49;0.50;;;0.50;;
15047;SDS011;7621;52.350;13.308;2023-03-01T17:26:09;0.00;;;0.00;;
15047;SDS011;7621;52.350;13.308;2023-03-01T17:28:36;0.10;;;0.10;;
15047;SDS011;7621;52.350;13.308;2023-03-01T17:31:03;0.10;;;0.10;;
15047;SDS011;7621;52.350;13.308;2023-03-01T17:33:29;0.10;;;0.10;;
15047;SDS011;7621;52.350;13.308;2023-03-01T17:35:55;0.10;;;0.10;;
15047;SDS011;7621;52.350;13.308;2023-03-01T17:38:21;0.10;;;0.10;;
15047;SDS011;7621;52.350;13.308;2023-03-01T17:40:47;0.10;;;0.10;;
15047;SDS011;7621;52.350;13.308;2023-03-01T17:43:14;0.20;;;0.20;;
15047;SDS011;7621;52.350;13.308;2023-03-01T17:45:41;0.10;;;0.10;;
15047;SDS011;7621;52.350;13.308;2023-03-01T17:48:11;0.20;;;0.20;;
15047;SDS011;7621;52.350;13.308;2023-03-01T17:50:37;0.07;;;0.07;;
15047;SDS011;7621;52.350;13.308;2023-03-01T17:53:04;0.03;;;0.03;;
15047;SDS011;7621;52.350;13.308;2023-03-01T17:55:33;0.00;;;0.00;;
15047;SDS011;7621;52.350;13.308;2023-03-01T17:58:00;0.00;;;0.00;;
15047;SDS011;7621;52.350;13.308;2023-03-01T18:00:26;0.00;;;0.00;;
15047;SDS011;7621;52.350;13.308;2023-03-01T18:02:52;0.20;;;0.20;;
15047;SDS011;7621;52.350;13.308;2023-03-01T18:05:18;0.20;;;0.20;;
15047;SDS011;7621;52.350;13.308;2023-03-01T18:07:43;0.00;;;0.00;;
15047;SDS011;7621;52.350;13.308;2023-03-01T18:10:09;0.10;;;0.10;;
15047;SDS011;7621;52.350;13.308;2023-03-01T18:12:35;0.07;;;0.07;;
15047;SDS011;7621;52.350;13.308;2023-03-01T18:15:02;0.10;;;0.10;;
15047;SDS011;7621;52.350;13.308;2023-03-01T18:17:28;0.20;;;0.20;;
15047;SDS011;7621;52.350;13.308;2023-03-01T18:19:54;0.10;;;0.10;;
15047;SDS011;7621;52.350;13.308;2023-03-01T18:22:20;0.20;;;0.20;;
15047;SDS011;7621;52.350;13.308;2023-03-01T18:24:47;0.13;;;0.13;;
15047;SDS011;7621;52.350;13.308;2023-03-01T18:27:12;0.10;;;0.10;;
15047;SDS011;7621;52.350;13.308;2023-03-01T18:29:38;0.10;;;0.10;;
15047;SDS011;7621;52.350;13.308;2023-03-01T18:32:04;0.20;;;0.20;;
15047;SDS011;7621;52.350;13.308;2023-03-01T18:34:30;0.20;;;0.20;;
15047;SDS011;7621;52.350;13.308;2023-03-01T18:36:57;0.10;;;0.10;;
15047;SDS011;7621;52.350;13.308;2023-03-01T18:39:22;0.20;;;0.20;;
15047;SDS011;7621;52.350;13.308;2023-03-01T18:41:48;0.17;;;0.17;;
15047;SDS011;7621;52.350;13.308;2023-03-01T18:44:14;0.10;;;0.10;;
15047;SDS011;7621;52.350;13.308;2023-03-01T18:46:40;0.20;;;0.20;;
15047;SDS011;7621;52.350;13.308;2023-03-01T18:49:06;0.20;;;0.20;;
15047;SDS011;7621;52.350;13.308;2023-03-01T18:51:32;0.10;;;0.10;;
15047;SDS011;7621;52.350;13.308;2023-03-01T18:53:59;0.10;;;0.10;;
15047;SDS011;7621;52.350;13.308;2023-03-01T18:56:27;0.10;;;0.10;;
15047;SDS011;7621;52.350;13.308;2023-03-01T18:58:53;0.10;;;0.10;;
15047;SDS011;7621;52.350;13.308;2023-03-01T19:01:21;0.10;;;0.10;;
15047;SDS011;7621;52.350;13.308;2023-03-01T19:03:48;0.10;;;0.10;;
15047;SDS011;7621;52.350;13.308;2023-03-01T19:06:14;0.10;;;0.10;;
15047;SDS011;7621;52.350;13.308;2023-03-01T19:08:40;0.13;;;0.13;;
15047;SDS011;7621;52.350;13.308;2023-03-01T19:11:07;0.30;;;0.30;;
15047;SDS011;7621;52.350;13.308;2023-03-01T19:13:33;0.20;;;0.20;;
15047;SDS011;7621;52.350;13.308;2023-03-01T19:18:33;0.20;;;0.20;;
15047;SDS011;7621;52.350;13.308;2023-03-01T19:21:00;0.10;;;0.10;;
15047;SDS011;7621;52.350;13.308;2023-03-01T19:23:28;0.10;;;0.10;;
15047;SDS011;7621;52.350;13.308;2023-03-01T19:25:58;0.10;;;0.10;;
15047;SDS011;7621;52.350;13.308;2023-03-01T19:28:28;0.07;;;0.07;;
15047;SDS011;7621;52.350;13.308;2023-03-01T19:30:59;0.10;;;0.10;;
15047;SDS011;7621;52.350;13.308;2023-03-01T19:33:30;0.10;;;0.10;;
15047;SDS011;7621;52.350;13.308;2023-03-01T19:35:57;0.20;;;0.20;;
15047;SDS011;7621;52.350;13.308;2023-03-01T19:38:23;0.10;;;0.10;;
15047;SDS011;7621;52.350;13.308;2023-03-01T19:40:49;0.20;;;0.20;;
15047;SDS011;7621;52.350;13.308;2023-03-01T19:43:15;0.10;;;0.10;;
15047;SDS011;7621;52.350;13.308;2023-03-01T19:45:41;0.10;;;0.10;;
15047;SDS011;7621;52.350;13.308;2023-03-01T19:48:07;0.10;;;0.10;;
15047;SDS011;7621;52.350;13.308;2023-03-01T19:50:33;0.10;;;0.10;;
15047;SDS011;7621;52.350;13.308;2023-03-01T19:52:59;0.10;;;0.10;;
15047;SDS011;7621;52.350;13.308;2023-03-01T19:55:24;0.17;;;0.17;;
15047;SDS011;7621;52.350;13.308;2023-03-01T19:57:50;0.10;;;0.10;;
15047;SDS011;7621;52.350;13.308;2023-03-01T20:00:15;0.10;;;0.10;;
15047;SDS011;7621;52.350;13.308;2023-03-01T20:02:41;0.20;;;0.20;;
15047;SDS011;7621;52.350;13.308;2023-03-01T20:05:07;0.17;;;0.17;;
15047;SDS011;7621;52.350;13.308;2023-03-01T20:07:33;0.20;;;0.20;;
15047;SDS011;7621;52.350;13.308;2023-03-01T20:09:59;0.10;;;0.10;;
15047;SDS011;7621;52.350;13.308;2023-03-01T20:12:24;0.10;;;0.10;;
15047;SDS011;7621;52.350;13.308;2023-03-01T20:14:50;0.10;;;0.10;;
15047;SDS011;7621;52.350;13.308;2023-03-01T20:17:19;0.20;;;0.20;;
15047;SDS011;7621;52.350;13.308;2023-03-01T20:19:45;0.10;;;0.10;;
15047;SDS011;7621;52.350;13.308;2023-03-01T20:22:11;0.10;;;0.10;;
15047;SDS011;7621;52.350;13.308;2023-03-01T20:24:39;0.20;;;0.20;;
15047;SDS011;7621;52.350;13.308;2023-03-01T20:27:08;0.20;;;0.20;;
15047;SDS011;7621;52.350;13.308;2023-03-01T20:29:33;0.20;;;0.20;;
15047;SDS011;7621;52.350;13.308;2023-03-01T20:31:59;0.20;;;0.20;;
15047;SDS011;7621;52.350;13.308;2023-03-01T20:34:25;0.13;;;0.13;;
15047;SDS011;7621;52.350;13.308;2023-03-01T20:36:50;0.20;;;0.20;;
15047;SDS011;7621;52.350;13.308;2023-03-01T20:39:16;0.20;;;0.20;;
15047;SDS011;7621;52.350;13.308;2023-03-01T20:41:41;0.30;;;0.30;;
15047;SDS011;7621;52.350;13.308;2023-03-01T20:44:07;0.30;;;0.30;;
15047;SDS011;7621;52.350;13.308;2023-03-01T20:46:34;0.20;;;0.20;;
15047;SDS011;7621;52.350;13.308;2023-03-01T20:49:00;0.10;;;0.10;;
15047;SDS011;7621;52.350;13.308;2023-03-01T20:51:26;0.20;;;0.20;;
15047;SDS011;7621;52.350;13.308;2023-03-01T20:53:52;0.20;;;0.20;;
15047;SDS011;7621;52.350;13.308;2023-03-01T20:56:18;0.10;;;0.10;;
15047;SDS011;7621;52.350;13.308;2023-03-01T20:58:44;0.20;;;0.20;;
15047;SDS011;7621;52.350;13.308;2023-03-01T21:01:12;0.10;;;0.10;;
15047;SDS011;7621;52.350;13.308;2023-03-01T21:03:40;0.23;;;0.23;;
